sensor_id;sensor_type;location;lat;lon;timestamp;temperature;humidity
29775;DHT22;16676;51.202;6.774;2023-04-24T00:03:54;20.40;66.50
29775;DHT22;16676;51.202;6.774;2023-04-24T00:07:56;20.40;66.30
29775;DHT22;16676;51.202;6.774;2023-04-24T00:11:58;20.40;66.40
29775;DHT22;16676;51.202;6.774;2023-04-24T00:16:00;20.30;66.30
29775;DHT22;16676;51.202;6.774;2023-04-24T00:20:05;20.40;66.40
29775;DHT22;16676;51.202;6.774;2023-04-24T00:24:07;20.40;66.40
29775;DHT22;16676;51.202;6.774;2023-04-24T00:28:10;20.30;66.30
29775;DHT22;16676;51.202;6.774;2023-04-24T00:32:12;20.30;66.30
29775;DHT22;16676;51.202;6.774;2023-04-24T00:36:15;20.30;66.10
29775;DHT22;16676;51.202;6.774;2023-04-24T00:40:19;20.30;66.20
29775;DHT22;16676;51.202;6.774;2023-04-24T00:44:21;20.30;66.30
29775;DHT22;16676;51.202;6.774;2023-04-24T00:48:24;20.30;66.10
29775;DHT22;16676;51.202;6.774;2023-04-24T00:52:28;20.30;66.10
29775;DHT22;16676;51.202;6.774;2023-04-24T00:56:31;20.20;66.10
29775;DHT22;16676;51.202;6.774;2023-04-24T01:00:34;20.30;66.20
29775;DHT22;16676;51.202;6.774;2023-04-24T01:04:36;20.20;66.30
29775;DHT22;16676;51.202;6.774;2023-04-24T01:08:41;20.20;66.30
29775;DHT22;16676;51.202;6.774;2023-04-24T01:12:43;20.20;66.30
29775;DHT22;16676;51.202;6.774;2023-04-24T01:16:45;20.20;66.40
29775;DHT22;16676;51.202;6.774;2023-04-24T01:20:49;20.20;66.70
29775;DHT22;16676;51.202;6.774;2023-04-24T01:24:54;20.20;66.30
29775;DHT22;16676;51.202;6.774;2023-04-24T01:28:56;20.20;66.20
29775;DHT22;16676;51.202;6.774;2023-04-24T01:32:58;20.20;66.40
29775;DHT22;16676;51.202;6.774;2023-04-24T01:37:01;20.20;66.60
29775;DHT22;16676;51.202;6.774;2023-04-24T01:41:04;20.20;66.50
29775;DHT22;16676;51.202;6.774;2023-04-24T01:45:10;20.20;66.50
29775;DHT22;16676;51.202;6.774;2023-04-24T01:49:12;20.20;67.40
29775;DHT22;16676;51.202;6.774;2023-04-24T01:53:14;20.20;66.60
29775;DHT22;16676;51.202;6.774;2023-04-24T01:57:17;20.10;66.50
29775;DHT22;16676;51.202;6.774;2023-04-24T02:01:19;20.10;66.50
29775;DHT22;16676;51.202;6.774;2023-04-24T02:05:21;20.10;66.50
29775;DHT22;16676;51.202;6.774;2023-04-24T02:09:23;20.10;66.60
29775;DHT22;16676;51.202;6.774;2023-04-24T02:13:27;20.10;66.50
29775;DHT22;16676;51.202;6.774;2023-04-24T02:17:29;20.10;66.60
29775;DHT22;16676;51.202;6.774;2023-04-24T02:21:31;20.10;66.70
29775;DHT22;16676;51.202;6.774;2023-04-24T02:25:33;20.00;66.70
29775;DHT22;16676;51.202;6.774;2023-04-24T02:29:36;20.00;66.70
29775;DHT22;16676;51.202;6.774;2023-04-24T02:33:38;20.00;66.70
29775;DHT22;16676;51.202;6.774;2023-04-24T02:37:40;20.00;66.70
29775;DHT22;16676;51.202;6.774;2023-04-24T02:41:42;20.00;66.60
29775;DHT22;16676;51.202;6.774;2023-04-24T02:45:46;20.00;66.80
29775;DHT22;16676;51.202;6.774;2023-04-24T02:49:48;20.00;66.70
29775;DHT22;16676;51.202;6.774;2023-04-24T02:53:50;20.00;67.00
29775;DHT22;16676;51.202;6.774;2023-04-24T02:57:52;20.00;66.80
29775;DHT22;16676;51.202;6.774;2023-04-24T03:01:55;20.00;66.90
29775;DHT22;16676;51.202;6.774;2023-04-24T03:05:57;20.00;67.00
29775;DHT22;16676;51.202;6.774;2023-04-24T03:09:59;20.00;66.80
29775;DHT22;16676;51.202;6.774;2023-04-24T03:14:00;20.00;66.90
29775;DHT22;16676;51.202;6.774;2023-04-24T03:18:04;19.90;67.00
29775;DHT22;16676;51.202;6.774;2023-04-24T03:22:06;19.90;67.20
29775;DHT22;16676;51.202;6.774;2023-04-24T03:26:09;19.90;67.00
29775;DHT22;16676;51.202;6.774;2023-04-24T03:30:11;19.90;66.90
29775;DHT22;16676;51.202;6.774;2023-04-24T03:34:14;19.90;66.90
29775;DHT22;16676;51.202;6.774;2023-04-24T03:38:16;19.90;67.00
29775;DHT22;16676;51.202;6.774;2023-04-24T03:42:18;19.80;67.00
29775;DHT22;16676;51.202;6.774;2023-04-24T03:46:20;19.90;67.00
29775;DHT22;16676;51.202;6.774;2023-04-24T03:50:23;19.90;66.90
29775;DHT22;16676;51.202;6.774;2023-04-24T03:54:27;19.90;66.90
29775;DHT22;16676;51.202;6.774;2023-04-24T03:58:29;19.90;66.90
29775;DHT22;16676;51.202;6.774;2023-04-24T04:02:31;19.80;66.80
29775;DHT22;16676;51.202;6.774;2023-04-24T04:06:34;19.90;67.00
29775;DHT22;16676;51.202;6.774;2023-04-24T04:10:36;19.80;66.80
29775;DHT22;16676;51.202;6.774;2023-04-24T04:14:38;19.90;66.80
29775;DHT22;16676;51.202;6.774;2023-04-24T04:18:40;19.90;66.80
29775;DHT22;16676;51.202;6.774;2023-04-24T04:22:43;19.80;66.70
29775;DHT22;16676;51.202;6.774;2023-04-24T04:26:46;19.80;66.80
29775;DHT22;16676;51.202;6.774;2023-04-24T04:30:47;19.80;67.10
29775;DHT22;16676;51.202;6.774;2023-04-24T04:34:49;19.80;67.50
29775;DHT22;16676;51.202;6.774;2023-04-24T04:38:55;19.80;67.90
29775;DHT22;16676;51.202;6.774;2023-04-24T04:42:57;19.80;67.60
29775;DHT22;16676;51.202;6.774;2023-04-24T04:46:59;19.80;67.70
29775;DHT22;16676;51.202;6.774;2023-04-24T04:51:04;19.80;67.50
29775;DHT22;16676;51.202;6.774;2023-04-24T04:55:08;19.80;67.60
29775;DHT22;16676;51.202;6.774;2023-04-24T04:59:10;19.80;67.50
29775;DHT22;16676;51.202;6.774;2023-04-24T05:03:12;19.70;67.80
29775;DHT22;16676;51.202;6.774;2023-04-24T05:07:14;19.80;68.10
29775;DHT22;16676;51.202;6.774;2023-04-24T05:11:18;19.80;68.00
29775;DHT22;16676;51.202;6.774;2023-04-24T05:15:19;19.80;67.90
29775;DHT22;16676;51.202;6.774;2023-04-24T05:19:21;19.80;67.80
29775;DHT22;16676;51.202;6.774;2023-04-24T05:23:23;19.80;68.10
29775;DHT22;16676;51.202;6.774;2023-04-24T05:27:27;19.80;67.80
29775;DHT22;16676;51.202;6.774;2023-04-24T05:31:29;19.80;67.90
29775;DHT22;16676;51.202;6.774;2023-04-24T05:35:31;19.80;67.80
29775;DHT22;16676;51.202;6.774;2023-04-24T05:39:33;19.80;67.80
29775;DHT22;16676;51.202;6.774;2023-04-24T05:43:36;19.70;67.90
29775;DHT22;16676;51.202;6.774;2023-04-24T05:47:38;19.80;68.00
29775;DHT22;16676;51.202;6.774;2023-04-24T05:51:40;19.70;67.80
29775;DHT22;16676;51.202;6.774;2023-04-24T05:55:42;19.70;67.90
29775;DHT22;16676;51.202;6.774;2023-04-24T05:59:45;19.70;68.00
29775;DHT22;16676;51.202;6.774;2023-04-24T06:03:47;19.70;68.10
29775;DHT22;16676;51.202;6.774;2023-04-24T06:07:49;19.70;66.10
29775;DHT22;16676;51.202;6.774;2023-04-24T06:11:51;19.50;64.20
29775;DHT22;16676;51.202;6.774;2023-04-24T06:15:55;19.30;63.60
29775;DHT22;16676;51.202;6.774;2023-04-24T06:19:57;19.30;63.70
29775;DHT22;16676;51.202;6.774;2023-04-24T06:23:59;19.20;63.10
29775;DHT22;16676;51.202;6.774;2023-04-24T06:28:01;19.20;66.50
29775;DHT22;16676;51.202;6.774;2023-04-24T06:32:04;19.40;67.40
29775;DHT22;16676;51.202;6.774;2023-04-24T06:36:06;19.50;66.10
29775;DHT22;16676;51.202;6.774;2023-04-24T06:40:09;19.60;66.10
29775;DHT22;16676;51.202;6.774;2023-04-24T06:44:11;19.60;65.70
29775;DHT22;16676;51.202;6.774;2023-04-24T06:48:16;19.60;66.40
29775;DHT22;16676;51.202;6.774;2023-04-24T06:52:18;19.60;66.30
29775;DHT22;16676;51.202;6.774;2023-04-24T06:56:20;19.60;66.50
29775;DHT22;16676;51.202;6.774;2023-04-24T07:00:22;19.70;66.60
29775;DHT22;16676;51.202;6.774;2023-04-24T07:04:26;19.70;66.40
29775;DHT22;16676;51.202;6.774;2023-04-24T07:08:29;19.70;67.40
29775;DHT22;16676;51.202;6.774;2023-04-24T07:12:31;19.70;67.80
29775;DHT22;16676;51.202;6.774;2023-04-24T07:16:33;19.70;68.00
29775;DHT22;16676;51.202;6.774;2023-04-24T07:20:37;19.80;67.90
29775;DHT22;16676;51.202;6.774;2023-04-24T07:24:39;19.80;67.90
29775;DHT22;16676;51.202;6.774;2023-04-24T07:28:41;19.80;67.90
29775;DHT22;16676;51.202;6.774;2023-04-24T07:32:43;19.80;68.20
29775;DHT22;16676;51.202;6.774;2023-04-24T07:36:46;19.80;68.40
29775;DHT22;16676;51.202;6.774;2023-04-24T07:40:48;19.80;68.50
29775;DHT22;16676;51.202;6.774;2023-04-24T07:44:50;19.90;68.10
29775;DHT22;16676;51.202;6.774;2023-04-24T07:48:52;19.80;69.10
29775;DHT22;16676;51.202;6.774;2023-04-24T07:52:55;19.90;68.50
29775;DHT22;16676;51.202;6.774;2023-04-24T07:56:57;19.90;68.40
29775;DHT22;16676;51.202;6.774;2023-04-24T08:00:59;20.00;68.20
29775;DHT22;16676;51.202;6.774;2023-04-24T08:05:01;20.00;68.20
29775;DHT22;16676;51.202;6.774;2023-04-24T08:09:05;20.00;68.70
29775;DHT22;16676;51.202;6.774;2023-04-24T08:13:07;20.00;68.10
29775;DHT22;16676;51.202;6.774;2023-04-24T08:17:09;20.00;67.80
29775;DHT22;16676;51.202;6.774;2023-04-24T08:21:11;20.00;67.70
29775;DHT22;16676;51.202;6.774;2023-04-24T08:25:19;20.00;68.00
29775;DHT22;16676;51.202;6.774;2023-04-24T08:29:21;20.00;68.40
29775;DHT22;16676;51.202;6.774;2023-04-24T08:33:23;20.00;68.20
29775;DHT22;16676;51.202;6.774;2023-04-24T08:37:26;20.00;68.20
29775;DHT22;16676;51.202;6.774;2023-04-24T08:41:30;20.00;68.20
29775;DHT22;16676;51.202;6.774;2023-04-24T08:45:33;20.00;68.40
29775;DHT22;16676;51.202;6.774;2023-04-24T08:49:36;20.10;68.70
29775;DHT22;16676;51.202;6.774;2023-04-24T08:53:40;20.10;68.50
29775;DHT22;16676;51.202;6.774;2023-04-24T08:57:44;20.10;68.70
29775;DHT22;16676;51.202;6.774;2023-04-24T09:01:48;20.00;68.90
29775;DHT22;16676;51.202;6.774;2023-04-24T09:05:52;20.10;69.00
29775;DHT22;16676;51.202;6.774;2023-04-24T09:09:56;20.10;69.00
29775;DHT22;16676;51.202;6.774;2023-04-24T09:13:59;20.10;69.00
29775;DHT22;16676;51.202;6.774;2023-04-24T09:18:02;20.10;69.10
29775;DHT22;16676;51.202;6.774;2023-04-24T09:22:05;20.10;69.10
29775;DHT22;16676;51.202;6.774;2023-04-24T09:26:09;20.10;69.00
29775;DHT22;16676;51.202;6.774;2023-04-24T09:30:13;20.10;69.00
29775;DHT22;16676;51.202;6.774;2023-04-24T09:34:21;20.20;69.10
29775;DHT22;16676;51.202;6.774;2023-04-24T09:38:31;20.20;69.00
29775;DHT22;16676;51.202;6.774;2023-04-24T09:42:33;20.20;69.00
29775;DHT22;16676;51.202;6.774;2023-04-24T09:46:37;20.20;68.80
29775;DHT22;16676;51.202;6.774;2023-04-24T09:50:39;20.30;69.10
29775;DHT22;16676;51.202;6.774;2023-04-24T09:54:41;20.30;68.80
29775;DHT22;16676;51.202;6.774;2023-04-24T09:58:43;20.30;68.50
29775;DHT22;16676;51.202;6.774;2023-04-24T10:02:49;20.30;68.70
29775;DHT22;16676;51.202;6.774;2023-04-24T10:06:53;20.40;68.70
29775;DHT22;16676;51.202;6.774;2023-04-24T10:10:55;20.40;68.50
29775;DHT22;16676;51.202;6.774;2023-04-24T10:14:58;20.40;68.80
29775;DHT22;16676;51.202;6.774;2023-04-24T10:19:03;20.40;68.70
29775;DHT22;16676;51.202;6.774;2023-04-24T10:23:05;20.40;68.80
29775;DHT22;16676;51.202;6.774;2023-04-24T10:27:08;20.40;68.70
29775;DHT22;16676;51.202;6.774;2023-04-24T10:31:12;20.50;68.90
29775;DHT22;16676;51.202;6.774;2023-04-24T10:35:16;20.50;69.00
29775;DHT22;16676;51.202;6.774;2023-04-24T10:39:20;20.50;69.60
29775;DHT22;16676;51.202;6.774;2023-04-24T10:43:23;20.50;69.00
29775;DHT22;16676;51.202;6.774;2023-04-24T10:47:25;20.50;69.20
29775;DHT22;16676;51.202;6.774;2023-04-24T10:51:45;20.50;69.10
29775;DHT22;16676;51.202;6.774;2023-04-24T10:55:48;20.50;69.30
29775;DHT22;16676;51.202;6.774;2023-04-24T10:59:52;20.50;69.20
29775;DHT22;16676;51.202;6.774;2023-04-24T11:04:12;20.50;69.20
29775;DHT22;16676;51.202;6.774;2023-04-24T11:08:21;20.50;69.20
29775;DHT22;16676;51.202;6.774;2023-04-24T11:12:26;20.60;69.20
29775;DHT22;16676;51.202;6.774;2023-04-24T11:16:30;20.60;69.10
29775;DHT22;16676;51.202;6.774;2023-04-24T11:20:33;20.60;67.20
29775;DHT22;16676;51.202;6.774;2023-04-24T11:24:39;20.50;66.40
29775;DHT22;16676;51.202;6.774;2023-04-24T11:28:46;20.50;65.70
29775;DHT22;16676;51.202;6.774;2023-04-24T11:32:50;20.40;64.90
29775;DHT22;16676;51.202;6.774;2023-04-24T11:36:53;20.30;64.00
29775;DHT22;16676;51.202;6.774;2023-04-24T11:40:57;20.30;64.30
29775;DHT22;16676;51.202;6.774;2023-04-24T11:45:00;20.30;64.10
29775;DHT22;16676;51.202;6.774;2023-04-24T11:49:02;20.30;63.50
29775;DHT22;16676;51.202;6.774;2023-04-24T11:53:04;20.30;63.00
29775;DHT22;16676;51.202;6.774;2023-04-24T11:57:07;20.30;63.00
29775;DHT22;16676;51.202;6.774;2023-04-24T12:01:09;20.20;63.00
29775;DHT22;16676;51.202;6.774;2023-04-24T12:05:19;20.20;62.70
29775;DHT22;16676;51.202;6.774;2023-04-24T12:09:21;20.10;62.00
29775;DHT22;16676;51.202;6.774;2023-04-24T12:13:25;20.10;61.50
29775;DHT22;16676;51.202;6.774;2023-04-24T12:17:29;20.10;61.80
29775;DHT22;16676;51.202;6.774;2023-04-24T12:21:31;20.00;61.10
29775;DHT22;16676;51.202;6.774;2023-04-24T12:25:34;20.00;60.80
29775;DHT22;16676;51.202;6.774;2023-04-24T12:29:37;20.00;61.60
29775;DHT22;16676;51.202;6.774;2023-04-24T12:33:52;20.10;61.50
29775;DHT22;16676;51.202;6.774;2023-04-24T12:37:54;20.10;61.40
29775;DHT22;16676;51.202;6.774;2023-04-24T12:41:56;20.20;61.20
29775;DHT22;16676;51.202;6.774;2023-04-24T12:46:00;20.20;60.90
29775;DHT22;16676;51.202;6.774;2023-04-24T12:50:02;20.20;60.50
29775;DHT22;16676;51.202;6.774;2023-04-24T12:54:04;20.20;60.60
29775;DHT22;16676;51.202;6.774;2023-04-24T12:58:07;20.20;60.20
29775;DHT22;16676;51.202;6.774;2023-04-24T13:02:10;20.20;60.20
29775;DHT22;16676;51.202;6.774;2023-04-24T13:06:12;20.20;60.30
29775;DHT22;16676;51.202;6.774;2023-04-24T13:10:14;20.20;59.80
29775;DHT22;16676;51.202;6.774;2023-04-24T13:14:16;20.20;59.60
29775;DHT22;16676;51.202;6.774;2023-04-24T13:18:19;20.20;59.20
29775;DHT22;16676;51.202;6.774;2023-04-24T13:22:21;20.20;59.60
29775;DHT22;16676;51.202;6.774;2023-04-24T13:26:23;20.20;59.20
29775;DHT22;16676;51.202;6.774;2023-04-24T13:30:25;20.20;59.20
29775;DHT22;16676;51.202;6.774;2023-04-24T13:34:29;20.20;58.30
29775;DHT22;16676;51.202;6.774;2023-04-24T13:38:30;20.20;58.00
29775;DHT22;16676;51.202;6.774;2023-04-24T13:42:32;20.20;58.00
29775;DHT22;16676;51.202;6.774;2023-04-24T13:46:35;20.20;58.20
29775;DHT22;16676;51.202;6.774;2023-04-24T13:50:38;20.20;57.70
29775;DHT22;16676;51.202;6.774;2023-04-24T13:54:40;20.30;57.80
29775;DHT22;16676;51.202;6.774;2023-04-24T13:58:42;20.30;57.90
29775;DHT22;16676;51.202;6.774;2023-04-24T14:02:43;20.20;57.70
29775;DHT22;16676;51.202;6.774;2023-04-24T14:06:47;20.20;57.90
29775;DHT22;16676;51.202;6.774;2023-04-24T14:10:50;20.20;58.00
29775;DHT22;16676;51.202;6.774;2023-04-24T14:14:52;20.20;57.60
29775;DHT22;16676;51.202;6.774;2023-04-24T14:18:54;20.20;57.60
29775;DHT22;16676;51.202;6.774;2023-04-24T14:22:58;20.30;57.50
29775;DHT22;16676;51.202;6.774;2023-04-24T14:27:00;20.20;57.20
29775;DHT22;16676;51.202;6.774;2023-04-24T14:31:02;20.20;57.10
29775;DHT22;16676;51.202;6.774;2023-04-24T14:35:05;20.30;57.90
29775;DHT22;16676;51.202;6.774;2023-04-24T14:39:08;20.20;57.40
29775;DHT22;16676;51.202;6.774;2023-04-24T14:43:11;20.30;57.80
29775;DHT22;16676;51.202;6.774;2023-04-24T14:47:13;20.30;57.00
29775;DHT22;16676;51.202;6.774;2023-04-24T14:51:15;20.30;57.00
29775;DHT22;16676;51.202;6.774;2023-04-24T14:55:19;20.30;56.90
29775;DHT22;16676;51.202;6.774;2023-04-24T14:59:21;20.30;56.80
29775;DHT22;16676;51.202;6.774;2023-04-24T15:03:22;20.30;56.50
29775;DHT22;16676;51.202;6.774;2023-04-24T15:07:24;20.30;56.30
29775;DHT22;16676;51.202;6.774;2023-04-24T15:11:28;20.40;56.40
29775;DHT22;16676;51.202;6.774;2023-04-24T15:15:30;20.40;56.90
29775;DHT22;16676;51.202;6.774;2023-04-24T15:19:32;20.40;56.90
29775;DHT22;16676;51.202;6.774;2023-04-24T15:23:33;20.30;56.90
29775;DHT22;16676;51.202;6.774;2023-04-24T15:27:41;20.30;56.50
29775;DHT22;16676;51.202;6.774;2023-04-24T15:31:43;20.30;56.30
29775;DHT22;16676;51.202;6.774;2023-04-24T15:35:45;20.30;56.40
29775;DHT22;16676;51.202;6.774;2023-04-24T15:39:47;20.30;56.50
29775;DHT22;16676;51.202;6.774;2023-04-24T15:43:50;20.40;56.30
29775;DHT22;16676;51.202;6.774;2023-04-24T15:47:52;20.40;56.40
29775;DHT22;16676;51.202;6.774;2023-04-24T15:51:54;20.50;56.40
29775;DHT22;16676;51.202;6.774;2023-04-24T15:55:56;20.50;58.20
29775;DHT22;16676;51.202;6.774;2023-04-24T15:59:59;20.40;58.30
29775;DHT22;16676;51.202;6.774;2023-04-24T16:04:01;20.30;58.50
29775;DHT22;16676;51.202;6.774;2023-04-24T16:08:03;20.30;57.80
29775;DHT22;16676;51.202;6.774;2023-04-24T16:12:05;20.30;57.40
29775;DHT22;16676;51.202;6.774;2023-04-24T16:16:08;20.40;57.30
29775;DHT22;16676;51.202;6.774;2023-04-24T16:20:11;20.30;57.30
29775;DHT22;16676;51.202;6.774;2023-04-24T16:24:13;20.30;56.80
29775;DHT22;16676;51.202;6.774;2023-04-24T16:28:15;20.30;56.40
29775;DHT22;16676;51.202;6.774;2023-04-24T16:32:18;20.30;56.70
29775;DHT22;16676;51.202;6.774;2023-04-24T16:36:20;20.20;56.40
29775;DHT22;16676;51.202;6.774;2023-04-24T16:40:22;20.20;55.10
29775;DHT22;16676;51.202;6.774;2023-04-24T16:44:24;20.20;56.40
29775;DHT22;16676;51.202;6.774;2023-04-24T16:48:27;20.20;55.70
29775;DHT22;16676;51.202;6.774;2023-04-24T16:52:29;20.20;55.20
29775;DHT22;16676;51.202;6.774;2023-04-24T16:56:31;20.10;54.50
29775;DHT22;16676;51.202;6.774;2023-04-24T17:00:33;20.20;54.80
29775;DHT22;16676;51.202;6.774;2023-04-24T17:04:37;20.20;55.20
29775;DHT22;16676;51.202;6.774;2023-04-24T17:08:39;20.20;54.60
29775;DHT22;16676;51.202;6.774;2023-04-24T17:12:41;20.20;54.80
29775;DHT22;16676;51.202;6.774;2023-04-24T17:16:43;20.20;55.10
29775;DHT22;16676;51.202;6.774;2023-04-24T17:20:46;20.20;55.30
29775;DHT22;16676;51.202;6.774;2023-04-24T17:24:48;20.30;55.80
29775;DHT22;16676;51.202;6.774;2023-04-24T17:28:50;20.20;55.90
29775;DHT22;16676;51.202;6.774;2023-04-24T17:32:53;20.20;56.10
29775;DHT22;16676;51.202;6.774;2023-04-24T17:36:57;19.90;50.90
29775;DHT22;16676;51.202;6.774;2023-04-24T17:40:59;19.70;51.10
29775;DHT22;16676;51.202;6.774;2023-04-24T17:45:01;19.50;51.30
29775;DHT22;16676;51.202;6.774;2023-04-24T17:49:03;19.40;51.90
29775;DHT22;16676;51.202;6.774;2023-04-24T17:53:06;19.20;51.20
29775;DHT22;16676;51.202;6.774;2023-04-24T17:57:08;19.40;54.30
29775;DHT22;16676;51.202;6.774;2023-04-24T18:01:11;19.80;53.90
29775;DHT22;16676;51.202;6.774;2023-04-24T18:05:12;20.20;55.00
29775;DHT22;16676;51.202;6.774;2023-04-24T18:09:16;20.40;55.50
29775;DHT22;16676;51.202;6.774;2023-04-24T18:13:20;20.60;56.30
29775;DHT22;16676;51.202;6.774;2023-04-24T18:17:22;20.80;56.60
29775;DHT22;16676;51.202;6.774;2023-04-24T18:21:25;20.90;57.10
29775;DHT22;16676;51.202;6.774;2023-04-24T18:25:29;20.90;57.30
29775;DHT22;16676;51.202;6.774;2023-04-24T18:29:31;21.00;57.80
29775;DHT22;16676;51.202;6.774;2023-04-24T18:33:33;21.00;57.90
29775;DHT22;16676;51.202;6.774;2023-04-24T18:37:35;21.00;58.30
29775;DHT22;16676;51.202;6.774;2023-04-24T18:41:38;21.10;58.90
29775;DHT22;16676;51.202;6.774;2023-04-24T18:45:40;21.10;58.90
29775;DHT22;16676;51.202;6.774;2023-04-24T18:49:43;21.10;59.20
29775;DHT22;16676;51.202;6.774;2023-04-24T18:53:45;21.10;59.80
29775;DHT22;16676;51.202;6.774;2023-04-24T18:57:48;21.10;60.00
29775;DHT22;16676;51.202;6.774;2023-04-24T19:01:50;21.10;59.90
29775;DHT22;16676;51.202;6.774;2023-04-24T19:05:52;21.00;60.60
29775;DHT22;16676;51.202;6.774;2023-04-24T19:09:54;21.00;61.00
29775;DHT22;16676;51.202;6.774;2023-04-24T19:13:57;21.00;60.90
29775;DHT22;16676;51.202;6.774;2023-04-24T19:18:03;21.00;60.90
29775;DHT22;16676;51.202;6.774;2023-04-24T19:22:05;21.00;61.30
29775;DHT22;16676;51.202;6.774;2023-04-24T19:26:07;21.00;61.50
29775;DHT22;16676;51.202;6.774;2023-04-24T19:30:11;21.10;61.40
29775;DHT22;16676;51.202;6.774;2023-04-24T19:34:13;21.10;61.30
29775;DHT22;16676;51.202;6.774;2023-04-24T19:38:15;21.00;60.70
29775;DHT22;16676;51.202;6.774;2023-04-24T19:42:17;21.10;60.80
29775;DHT22;16676;51.202;6.774;2023-04-24T19:46:20;21.00;60.80
29775;DHT22;16676;51.202;6.774;2023-04-24T19:50:22;21.00;60.90
29775;DHT22;16676;51.202;6.774;2023-04-24T19:54:24;21.00;61.10
29775;DHT22;16676;51.202;6.774;2023-04-24T19:58:26;21.00;61.30
29775;DHT22;16676;51.202;6.774;2023-04-24T20:02:31;20.90;61.80
29775;DHT22;16676;51.202;6.774;2023-04-24T20:06:33;20.90;62.10
29775;DHT22;16676;51.202;6.774;2023-04-24T20:10:35;20.90;62.00
29775;DHT22;16676;51.202;6.774;2023-04-24T20:14:37;20.90;62.00
29775;DHT22;16676;51.202;6.774;2023-04-24T20:18:40;20.90;62.20
29775;DHT22;16676;51.202;6.774;2023-04-24T20:22:42;20.80;62.40
29775;DHT22;16676;51.202;6.774;2023-04-24T20:26:44;20.80;62.50
29775;DHT22;16676;51.202;6.774;2023-04-24T20:30:46;20.80;62.10
29775;DHT22;16676;51.202;6.774;2023-04-24T20:34:49;20.80;62.50
29775;DHT22;16676;51.202;6.774;2023-04-24T20:38:51;20.90;62.30
29775;DHT22;16676;51.202;6.774;2023-04-24T20:42:54;20.80;62.50
29775;DHT22;16676;51.202;6.774;2023-04-24T20:46:57;20.80;62.20
29775;DHT22;16676;51.202;6.774;2023-04-24T20:51:00;20.80;62.50
29775;DHT22;16676;51.202;6.774;2023-04-24T20:55:02;20.80;62.60
29775;DHT22;16676;51.202;6.774;2023-04-24T20:59:04;20.70;63.20
29775;DHT22;16676;51.202;6.774;2023-04-24T21:03:06;20.70;63.70
29775;DHT22;16676;51.202;6.774;2023-04-24T21:07:10;20.60;63.20
29775;DHT22;16676;51.202;6.774;2023-04-24T21:11:13;20.60;63.00
29775;DHT22;16676;51.202;6.774;2023-04-24T21:15:15;20.60;63.40
29775;DHT22;16676;51.202;6.774;2023-04-24T21:19:17;20.50;63.60
29775;DHT22;16676;51.202;6.774;2023-04-24T21:23:20;20.50;63.70
29775;DHT22;16676;51.202;6.774;2023-04-24T21:27:22;20.40;64.00
29775;DHT22;16676;51.202;6.774;2023-04-24T21:31:24;20.40;64.00
29775;DHT22;16676;51.202;6.774;2023-04-24T21:35:26;20.40;64.10
29775;DHT22;16676;51.202;6.774;2023-04-24T21:39:29;20.30;63.80
29775;DHT22;16676;51.202;6.774;2023-04-24T21:43:31;20.30;64.40
29775;DHT22;16676;51.202;6.774;2023-04-24T21:47:33;20.30;64.50
29775;DHT22;16676;51.202;6.774;2023-04-24T21:51:35;20.30;64.50
29775;DHT22;16676;51.202;6.774;2023-04-24T21:55:38;20.30;64.30
29775;DHT22;16676;51.202;6.774;2023-04-24T21:59:41;20.30;63.90
29775;DHT22;16676;51.202;6.774;2023-04-24T22:03:43;20.30;64.30
29775;DHT22;16676;51.202;6.774;2023-04-24T22:07:45;20.40;63.90
29775;DHT22;16676;51.202;6.774;2023-04-24T22:11:48;20.40;63.70
29775;DHT22;16676;51.202;6.774;2023-04-24T22:15:50;20.30;64.10
29775;DHT22;16676;51.202;6.774;2023-04-24T22:19:52;20.30;63.70
29775;DHT22;16676;51.202;6.774;2023-04-24T22:23:54;20.30;63.60
29775;DHT22;16676;51.202;6.774;2023-04-24T22:27:57;20.30;63.40
29775;DHT22;16676;51.202;6.774;2023-04-24T22:31:59;20.30;63.30
29775;DHT22;16676;51.202;6.774;2023-04-24T22:36:02;20.30;63.50
29775;DHT22;16676;51.202;6.774;2023-04-24T22:40:05;20.30;63.50
29775;DHT22;16676;51.202;6.774;2023-04-24T22:44:09;20.30;64.30
29775;DHT22;16676;51.202;6.774;2023-04-24T22:48:11;20.20;63.80
29775;DHT22;16676;51.202;6.774;2023-04-24T22:52:13;20.30;63.80
29775;DHT22;16676;51.202;6.774;2023-04-24T22:56:16;20.20;64.40
29775;DHT22;16676;51.202;6.774;2023-04-24T23:00:20;20.20;63.80
29775;DHT22;16676;51.202;6.774;2023-04-24T23:04:22;20.20;63.80
29775;DHT22;16676;51.202;6.774;2023-04-24T23:08:24;20.20;64.20
29775;DHT22;16676;51.202;6.774;2023-04-24T23:12:26;20.20;63.90
29775;DHT22;16676;51.202;6.774;2023-04-24T23:16:29;20.20;63.90
29775;DHT22;16676;51.202;6.774;2023-04-24T23:20:32;20.20;64.00
29775;DHT22;16676;51.202;6.774;2023-04-24T23:24:34;20.10;63.90
29775;DHT22;16676;51.202;6.774;2023-04-24T23:28:36;20.10;63.90
29775;DHT22;16676;51.202;6.774;2023-04-24T23:32:41;20.10;64.40
29775;DHT22;16676;51.202;6.774;2023-04-24T23:36:44;20.10;64.40
29775;DHT22;16676;51.202;6.774;2023-04-24T23:40:46;20.10;64.60
29775;DHT22;16676;51.202;6.774;2023-04-24T23:44:50;20.00;64.60
29775;DHT22;16676;51.202;6.774;2023-04-24T23:48:53;20.00;64.60
29775;DHT22;16676;51.202;6.774;2023-04-24T23:52:55;19.90;64.70
29775;DHT22;16676;51.202;6.774;2023-04-24T23:56:57;19.90;66.20
